This site, now in its 15th season, is a labour of love and fun from one of Ottawa's most avid time trialists and number crunchers. It adheres to and is permitted by the laws of Canada, promotes the objectives of every bicycle club whose results are shown, and is donated free of charge by myself for your enjoyment and usage. If you would like results from series you ride in to be shown here, give me (celia@drmath.ca) a shout!


Index Page
ATT OTT WTT AATT CFCTT VVVTT
Help resultformat:
Case-sensitive

OBC Open TT Series - 2018-Aug-23 - 15km (Rockliffe Pkwy)

Ottawa Weather (18:00): Partly Cloudy. Temp.erature: 24.8C, Wind: WSW 19 gust 29km/h, Humidex: 28, Relative humidity: 48%, Dew point: 13C, Pressure: 101.3kPa, Visibility: 24km.
Ottawa Weather (19:00): Mainly Sunny. Temp.erature: 22.9C, Wind: SW 12km/h, Humidex: 26, Relative humidity: 55%, Dew point: 14C, Pressure: 101.3kPa, Visibility: 24km.
Ottawa Weather (20:00): Partly Cloudy. Temp.erature: 21.0C, Wind: SW 10km/h, Humidex: 24, Relative humidity: 61%, Dew point: 13C, Pressure: 101.3kPa, Visibility: 24km.

Send photos with description (when/where/what) of yourself on or off of bike to celia@drmath.ca

 
 

BESTS?
 
1 Toppings, Connor TLD 18:33 48.518 1/50 SEM 1/4 1.0300
2 Purificati, Justin RWR 18:50 47.788 2/50 SEM 2/4 0.9895
Y 3 Boileau, Greg NTF 19:29 46.193 3/50 VAM 1/7 1.0628
4 Rendall, Glen  RWR 19:36 45.918 4/50 VBM 1/8 0.9822
5 Monnink, Jordan IND 19:49 45.416 5/50 SEM 3/4 0.9924
6 Miles, Carson OBC 19:50 45.378 6/50 JUM 1/2 0.8769
7 Diaz, Rodrigo  OBC/EUR 19:52 45.302 7/50 VBM 2/8 0.9432
8 Katz, Joel  OBC/RWR 20:19 44.299 8/50 VDM 1/7 0.9732
9 Tsilemos, Jim RWR 20:54 43.062 9/50 VBM 3/8 0.9599
10 Ross, Ron CLG 20:57 42.959 10/50 VCM 1/7 1.0241
11 Schuck, Peter  OBC/RWR 21:01 42.823 11/50 VDM 2/7 0.9578
12 Lafleur, Guillaume OBC 21:07 42.620 12/50 VAM 2/7 0.9442
13 Martins, Alex OBC 21:11 42.486 13/50 VBM 4/8 0.9376
14 Campbell, Colin  OBC 21:15 42.353 14/50 VCM 2/7 1.0309
15 Mullington, Chris WQW 21:39 41.570 15/50 VDM 3/7 0.8953
16 Budgell, Glen  OBC 21:49 41.253 16/50 VDM 4/7 1.0278
17 Page, Graham OBC/NTF 21:53 41.127 17/50 VAM 3/7 0.9178
18 Manners, Mark OBC 21:59 40.940 18/50 VAM 4/7 1.0369
19 Burge, Larry  OBC 22:06 40.724 19/50 VCM 3/7 0.9955
20 Hicks, Bob  --- 23:01 39.102 20/50 VEM 1/5  
21 Rivoche, Michael WQW 23:03 39.046 21/50 VDM 5/7 0.9510
22 Christie, Greg  OBC/RWR 23:08 38.905 22/50 VDM 6/7  
23 Till, Michael WQW 23:09 38.877 23/50 VCM 4/7 0.8739
24 Grace, Darrin  EUR 23:16 38.682 24/50 VCM 5/7 1.0238
25 Basu, Ben  OBC 23:25 38.434 25/50 VBM 5/8 0.9683
26 Lavergne, Jazmine OBC 23:27 38.380 26/50 CAF 1/2 0.9705
27 Deschamps, Martin WQW 23:28 38.352 27/50 VBM 6/8 0.8932
28 Omura, Tommy OBC 23:29 38.325 28/50 JUM 2/2 1.0171
29 Marleau, Dianne  OBC 23:46 37.868 29/50 VCF 1/2 1.1202
30 Messier, Jill WQW 23:48 37.815 30/50 SEF 1/1 0.9124
31 Tkalec, Heather  EUR 23:50 37.762 31/50 VBF 1/2 0.9916
32 Buffa, Alex  OBC 23:51 37.736 32/50 VBM 7/8 0.9812
33 Boulanger, Gaetan  IND 23:54 37.657 33/50 VEM 2/5 1.0446
34 Déry, Nicolas  OBC 24:01 37.474 34/50 VBM 8/8 0.9855
35 Gilchrist, Ryan  OBC 24:06 37.344 35/50 VCM 6/7 0.9651
36 Williams, Mallory OBC 24:24 36.885 36/50 CAF 2/2 0.9959
37 Deavy, Carol  OBC 24:38 36.536 37/50 VCF 2/2 0.8812
38 Burdett, Avery  OBC 24:51 36.217 38/50 VEM 3/5 1.0101
39 Laberge, Marc OBC 25:07 35.833 39/50 VAM 5/7 1.1157
40 Moerman, Bram  OBC 25:22 35.480 40/50 VEM 4/5 0.8139
41 Gervais, Dominique OBC 25:28 35.340 41/50 JUF 1/1 0.9309
42 Jolly, Mangesh EUR 25:49 34.861 42/50 VAM 6/7 0.9712
43 Dore, Morley OBC 25:54 34.749 43/50 VEM 5/5 1.0253
44 Pham, Doug WQW 25:57 34.682 44/50 VCM 7/7 0.9563
45 Beauchamp, Angela  EUR 25:58 34.660 45/50 VBF 2/2 0.9158
s 46 McInnis, Celia  OBC/ABC 26:43 33.687 46/50 VDF 1/2 1.0056
47 Patterson, Craig OBC 26:50 33.540 47/50 SEM 4/4 1.0301
48 Monette, Gary WQW 27:20 32.927 48/50 VDM 7/7 0.9747
49 Foy, Jeff OBC 27:22 32.887 49/50 VAM 7/7  
50 Morris, Jane  OBC 28:55 31.124 50/50 VDF 2/2  
 
Average Speed of all of the above 50 finishes (750km in 19:19:29):38.810
>>>Average of the Average Speeds for these 50 finishes39.238<<<
 

The number of data records shown above is 50
The server processing of your query took: 2 wallclock secs ( 0.11 usr + 0.00 sys = 0.11 CPU)

Thanks to our Helpers: Mark Manners, Alex McKnight, Jess Raymond, Peter Tregunno

     


Mar 30 (Good Friday)
May 1 (10km) May 3 May 8 (10km) May 10 May 15 (10km) May 17 May 22 (10km) May 24 May 29 (10km) May 31
Jun 5 Jun 5 Jun 7 Jun 12 Jun 12 Jun 14 Jun 17 (40km) Jun 19 Jun 19 Jun 21 Jun 26 Jun 26 Jun 28
Jul 3 Jul 3 Jul 5 Jul 8 (40km) Jul 10 Jul 10 Jul 12 Jul 17 Jul 17 Jul 19 Jul 24 Jul 24 Jul 26 Jul 31 Jul 31
Aug 2 Aug 5 (40km) Aug 7 Aug 7 Aug 9 Aug 14 Aug 14 Aug 16 Aug 21 Aug 21
  Aug 23  
Aug 28 Aug 28 (Invitational) Aug 30#1 (Eddie Merckx) Aug 30#2 (With Aero)
Sep 2 (40km) Sep 4 Sep 6 Sep 11 Sep 13 Sep 18

OTT Rankings
Best       Best by category
WTT Rankings for All Participants
5 Best Speeds (≥3 15km, ≤1 10km)     5 Best Speeds (≥3 15km, ≤1 10km) by category
OTT Best Three 15km Rankings
Overall     by category     age-Hcap Female   age-Hcap Male
Other years
TT Calculator All TT People All TT events
ABC Home VVV Home
CKAP GOLD MEDAL
Other Links

Note: OTT data from 2003 through 2006-Apr-14 and 2007-Apr-06-? and WTT from 2008-? is taken from the official OBC site.

Please send your comments and suggestions to: Celia McInnis
Copyright © 1998-2011 Celia McInnis. All rights reserved. Links are welcomed.